Old Landing, Kentucky
Current Conditions -  °F | °C
As of 1:53 AM on Wednesday 26 Nov 2014 (Local Time) from KJKL Reporting Station
Clear Clear  
Wind Chill: 34°   Ceiling: Unl
Heat Index: 38°   Visibility: 10mi
Dew Point: 28°   Wind: 5mph
Humidity: 68%   Direction: NA
Pressure: 30.06"   Gusts: NA
Location:  37.5908°N, 83.7186°W
Report Text: KJKL 260653Z AUTO VRB04KT 10SM CLR 03/M02 A3006 RMK AO2 SLP180 T00331022
Loading
Personal Weather Stations






























Interactive Weather Map New forecast layout! Learn more

10-Day Weather Forecast

Advertisements
Track Severe Weather on mobile